Waite Park, Minnesota
Current Conditions -  °F | °C
As of 11:53 PM on Saturday 22 Nov 2014 (Local Time) from KSTC Reporting Station
Moderate Fog Moderate Fog  
Wind Chill: 30°   Ceiling: 200
Heat Index: 37°   Visibility: 0.25mi
Dew Point: 35°   Wind: 9mph
Humidity: 93%   Direction: 140°SE
Pressure: 29.44"   Gusts: NA
Location:  45.55°N, 94.23°W
Report Text: KSTC 230553Z AUTO 14008KT 1/4SM FG VV002 03/02 A2944 RMK AO2 SLP988 T00280017 10028 20011 400281050 56025
Loading
Personal Weather Stations






























Interactive Weather Map New forecast layout! Learn more

10-Day Weather Forecast

Advertisements
Track Severe Weather on mobile